sensor_id;sensor_type;location;lat;lon;timestamp;pressure;altitude;pressure_sealevel;temperature;humidity
40372;BME280;28564;53.346;-6.554;2023-08-06T00:02:16;101082.58;;;15.53;49.45
40372;BME280;28564;53.346;-6.554;2023-08-06T00:04:43;101081.03;;;15.51;49.50
40372;BME280;28564;53.346;-6.554;2023-08-06T00:07:10;101085.29;;;15.49;49.53
40372;BME280;28564;53.346;-6.554;2023-08-06T00:09:38;101085.88;;;15.48;49.56
40372;BME280;28564;53.346;-6.554;2023-08-06T00:12:05;101088.74;;;15.46;49.57
40372;BME280;28564;53.346;-6.554;2023-08-06T00:14:33;101086.99;;;15.43;49.60
40372;BME280;28564;53.346;-6.554;2023-08-06T00:17:01;101086.54;;;15.39;49.62
40372;BME280;28564;53.346;-6.554;2023-08-06T00:19:28;101082.47;;;15.37;49.70
40372;BME280;28564;53.346;-6.554;2023-08-06T00:21:57;101082.08;;;15.09;49.72
40372;BME280;28564;53.346;-6.554;2023-08-06T00:24:24;101085.33;;;15.05;49.75
40372;BME280;28564;53.346;-6.554;2023-08-06T00:26:51;101086.68;;;15.02;49.80
40372;BME280;28564;53.346;-6.554;2023-08-06T00:29:18;101089.63;;;15.29;49.82
40372;BME280;28564;53.346;-6.554;2023-08-06T00:31:45;101090.41;;;15.27;49.77
40372;BME280;28564;53.346;-6.554;2023-08-06T00:34:13;101088.43;;;15.22;49.75
40372;BME280;28564;53.346;-6.554;2023-08-06T00:36:40;101088.73;;;15.18;49.73
40372;BME280;28564;53.346;-6.554;2023-08-06T00:39:08;101088.35;;;15.09;49.78
40372;BME280;28564;53.346;-6.554;2023-08-06T00:41:35;101086.31;;;15.19;49.93
40372;BME280;28564;53.346;-6.554;2023-08-06T00:44:02;101089.11;;;14.93;50.09
40372;BME280;28564;53.346;-6.554;2023-08-06T00:46:30;101091.82;;;14.94;50.19
40372;BME280;28564;53.346;-6.554;2023-08-06T00:48:58;101092.33;;;14.96;50.24
40372;BME280;28564;53.346;-6.554;2023-08-06T00:51:27;101092.35;;;14.99;50.25
40372;BME280;28564;53.346;-6.554;2023-08-06T00:53:55;101099.64;;;14.99;50.31
40372;BME280;28564;53.346;-6.554;2023-08-06T00:56:24;101100.46;;;15.04;50.34
40372;BME280;28564;53.346;-6.554;2023-08-06T00:58:52;101099.85;;;15.11;50.40
40372;BME280;28564;53.346;-6.554;2023-08-06T01:01:20;101097.89;;;15.14;50.44
40372;BME280;28564;53.346;-6.554;2023-08-06T01:03:47;101098.98;;;15.21;50.46
40372;BME280;28564;53.346;-6.554;2023-08-06T01:06:18;101099.36;;;15.36;50.56
40372;BME280;28564;53.346;-6.554;2023-08-06T01:08:56;101095.06;;;15.51;50.37
40372;BME280;28564;53.346;-6.554;2023-08-06T01:11:30;101095.08;;;15.61;50.09
40372;BME280;28564;53.346;-6.554;2023-08-06T01:14:05;101089.87;;;15.33;49.73
40372;BME280;28564;53.346;-6.554;2023-08-06T01:16:35;101087.68;;;15.24;49.52
40372;BME280;28564;53.346;-6.554;2023-08-06T01:19:02;101089.91;;;15.19;49.52
40372;BME280;28564;53.346;-6.554;2023-08-06T01:21:29;101089.87;;;15.25;49.41
40372;BME280;28564;53.346;-6.554;2023-08-06T01:23:56;101093.34;;;15.19;49.14
40372;BME280;28564;53.346;-6.554;2023-08-06T01:26:30;101096.19;;;15.56;48.88
40372;BME280;28564;53.346;-6.554;2023-08-06T01:29:07;101097.99;;;15.32;48.79
40372;BME280;28564;53.346;-6.554;2023-08-06T01:31:38;101093.16;;;15.40;48.95
40372;BME280;28564;53.346;-6.554;2023-08-06T01:34:09;101091.03;;;15.34;49.08
40372;BME280;28564;53.346;-6.554;2023-08-06T01:36:38;101093.15;;;15.51;49.12
40372;BME280;28564;53.346;-6.554;2023-08-06T01:39:06;101096.83;;;14.97;49.24
40372;BME280;28564;53.346;-6.554;2023-08-06T01:41:34;101100.05;;;15.43;49.33
40372;BME280;28564;53.346;-6.554;2023-08-06T01:44:01;101104.58;;;15.38;49.32
40372;BME280;28564;53.346;-6.554;2023-08-06T01:46:29;101111.05;;;15.34;49.31
40372;BME280;28564;53.346;-6.554;2023-08-06T01:48:56;101113.56;;;15.13;49.16
40372;BME280;28564;53.346;-6.554;2023-08-06T01:51:23;101117.70;;;15.06;48.97
40372;BME280;28564;53.346;-6.554;2023-08-06T01:53:50;101114.66;;;15.18;48.75
40372;BME280;28564;53.346;-6.554;2023-08-06T01:56:18;101117.51;;;15.27;48.61
40372;BME280;28564;53.346;-6.554;2023-08-06T01:58:44;101118.98;;;15.34;48.51
40372;BME280;28564;53.346;-6.554;2023-08-06T02:01:12;101121.05;;;15.38;48.42
40372;BME280;28564;53.346;-6.554;2023-08-06T02:03:39;101123.17;;;15.50;48.26
40372;BME280;28564;53.346;-6.554;2023-08-06T02:06:06;101123.61;;;15.31;48.11
40372;BME280;28564;53.346;-6.554;2023-08-06T02:08:33;101121.65;;;15.52;48.14
40372;BME280;28564;53.346;-6.554;2023-08-06T02:11:01;101124.98;;;15.50;48.13
40372;BME280;28564;53.346;-6.554;2023-08-06T02:13:28;101124.34;;;15.48;48.08
40372;BME280;28564;53.346;-6.554;2023-08-06T02:15:55;101125.69;;;14.94;47.91
40372;BME280;28564;53.346;-6.554;2023-08-06T02:18:23;101126.67;;;15.39;48.01
40372;BME280;28564;53.346;-6.554;2023-08-06T02:20:58;101126.83;;;15.36;48.03
40372;BME280;28564;53.346;-6.554;2023-08-06T02:23:26;101127.39;;;15.57;48.03
40372;BME280;28564;53.346;-6.554;2023-08-06T02:26:02;101123.49;;;15.33;48.01
40372;BME280;28564;53.346;-6.554;2023-08-06T02:28:29;101125.63;;;15.21;48.13
40372;BME280;28564;53.346;-6.554;2023-08-06T02:30:57;101122.46;;;15.20;48.31
40372;BME280;28564;53.346;-6.554;2023-08-06T02:33:24;101120.01;;;15.27;48.54
40372;BME280;28564;53.346;-6.554;2023-08-06T02:35:54;101121.90;;;14.81;48.69
40372;BME280;28564;53.346;-6.554;2023-08-06T02:38:25;101124.00;;;15.12;48.91
40372;BME280;28564;53.346;-6.554;2023-08-06T02:40:53;101130.20;;;14.78;49.10
40372;BME280;28564;53.346;-6.554;2023-08-06T02:43:20;101130.49;;;14.67;49.23
40372;BME280;28564;53.346;-6.554;2023-08-06T02:45:47;101131.45;;;14.59;49.43
40372;BME280;28564;53.346;-6.554;2023-08-06T02:48:14;101132.60;;;14.57;49.63
40372;BME280;28564;53.346;-6.554;2023-08-06T02:50:41;101134.73;;;14.79;49.80
40372;BME280;28564;53.346;-6.554;2023-08-06T02:53:08;101132.26;;;14.57;49.92
40372;BME280;28564;53.346;-6.554;2023-08-06T02:55:36;101131.05;;;14.55;49.96
40372;BME280;28564;53.346;-6.554;2023-08-06T02:58:04;101129.67;;;14.50;49.93
40372;BME280;28564;53.346;-6.554;2023-08-06T03:00:31;101130.09;;;14.41;49.97
40372;BME280;28564;53.346;-6.554;2023-08-06T03:02:58;101127.76;;;14.35;50.01
40372;BME280;28564;53.346;-6.554;2023-08-06T03:05:25;101123.26;;;14.74;50.06
40372;BME280;28564;53.346;-6.554;2023-08-06T03:07:52;101124.97;;;14.38;50.15
40372;BME280;28564;53.346;-6.554;2023-08-06T03:10:19;101122.58;;;14.57;50.28
40372;BME280;28564;53.346;-6.554;2023-08-06T03:12:47;101121.82;;;14.53;50.37
40372;BME280;28564;53.346;-6.554;2023-08-06T03:15:14;101126.17;;;14.50;50.38
40372;BME280;28564;53.346;-6.554;2023-08-06T03:17:41;101126.62;;;14.18;50.42
40372;BME280;28564;53.346;-6.554;2023-08-06T03:20:09;101124.77;;;14.13;50.59
40372;BME280;28564;53.346;-6.554;2023-08-06T03:22:36;101124.74;;;14.10;50.82
40372;BME280;28564;53.346;-6.554;2023-08-06T03:25:04;101130.79;;;14.13;51.11
40372;BME280;28564;53.346;-6.554;2023-08-06T03:27:31;101131.08;;;14.44;51.05
40372;BME280;28564;53.346;-6.554;2023-08-06T03:29:58;101134.19;;;14.19;51.17
40372;BME280;28564;53.346;-6.554;2023-08-06T03:32:26;101130.19;;;14.25;51.40
40372;BME280;28564;53.346;-6.554;2023-08-06T03:34:53;101131.80;;;14.34;51.41
40372;BME280;28564;53.346;-6.554;2023-08-06T03:37:20;101132.94;;;14.19;51.31
40372;BME280;28564;53.346;-6.554;2023-08-06T03:39:47;101131.47;;;14.25;51.31
40372;BME280;28564;53.346;-6.554;2023-08-06T03:42:14;101128.56;;;14.53;51.12
40372;BME280;28564;53.346;-6.554;2023-08-06T03:44:42;101126.75;;;14.83;51.03
40372;BME280;28564;53.346;-6.554;2023-08-06T03:47:09;101124.56;;;14.32;50.89
40372;BME280;28564;53.346;-6.554;2023-08-06T03:49:36;101118.00;;;14.48;50.83
40372;BME280;28564;53.346;-6.554;2023-08-06T03:52:05;101117.76;;;14.69;50.83
40372;BME280;28564;53.346;-6.554;2023-08-06T03:54:32;101114.25;;;14.13;50.78
40372;BME280;28564;53.346;-6.554;2023-08-06T03:57:00;101117.54;;;14.06;50.80
40372;BME280;28564;53.346;-6.554;2023-08-06T03:59:27;101119.04;;;14.18;50.89
40372;BME280;28564;53.346;-6.554;2023-08-06T04:01:55;101116.35;;;14.12;51.02
40372;BME280;28564;53.346;-6.554;2023-08-06T04:04:22;101119.11;;;14.35;51.06
40372;BME280;28564;53.346;-6.554;2023-08-06T04:06:49;101121.36;;;14.34;51.05
40372;BME280;28564;53.346;-6.554;2023-08-06T04:09:16;101121.85;;;14.32;50.99
40372;BME280;28564;53.346;-6.554;2023-08-06T04:11:43;101123.49;;;14.30;50.97
40372;BME280;28564;53.346;-6.554;2023-08-06T04:14:11;101121.46;;;13.97;51.00
40372;BME280;28564;53.346;-6.554;2023-08-06T04:16:38;101121.23;;;14.19;51.15
40372;BME280;28564;53.346;-6.554;2023-08-06T04:19:05;101125.94;;;14.17;51.23
40372;BME280;28564;53.346;-6.554;2023-08-06T04:21:32;101124.92;;;14.12;51.33
40372;BME280;28564;53.346;-6.554;2023-08-06T04:24:00;101127.12;;;13.80;51.48
40372;BME280;28564;53.346;-6.554;2023-08-06T04:26:28;101135.48;;;14.01;51.67
40372;BME280;28564;53.346;-6.554;2023-08-06T04:28:55;101135.99;;;13.95;51.78
40372;BME280;28564;53.346;-6.554;2023-08-06T04:31:23;101135.29;;;14.15;51.81
40372;BME280;28564;53.346;-6.554;2023-08-06T04:33:50;101135.04;;;13.92;51.85
40372;BME280;28564;53.346;-6.554;2023-08-06T04:36:17;101137.42;;;13.93;51.80
40372;BME280;28564;53.346;-6.554;2023-08-06T04:38:44;101137.84;;;13.91;51.81
40372;BME280;28564;53.346;-6.554;2023-08-06T04:41:11;101137.58;;;13.88;51.87
40372;BME280;28564;53.346;-6.554;2023-08-06T04:43:38;101143.39;;;13.86;51.97
40372;BME280;28564;53.346;-6.554;2023-08-06T04:46:06;101143.64;;;13.83;52.12
40372;BME280;28564;53.346;-6.554;2023-08-06T04:48:33;101140.44;;;13.53;52.25
40372;BME280;28564;53.346;-6.554;2023-08-06T04:51:00;101138.72;;;13.78;52.36
40372;BME280;28564;53.346;-6.554;2023-08-06T04:53:27;101140.56;;;13.75;52.53
40372;BME280;28564;53.346;-6.554;2023-08-06T04:55:54;101140.79;;;13.96;52.66
40372;BME280;28564;53.346;-6.554;2023-08-06T04:58:22;101144.28;;;13.74;52.69
40372;BME280;28564;53.346;-6.554;2023-08-06T05:00:49;101148.53;;;13.98;52.70
40372;BME280;28564;53.346;-6.554;2023-08-06T05:03:16;101149.69;;;13.80;52.70
40372;BME280;28564;53.346;-6.554;2023-08-06T05:05:43;101150.22;;;13.88;52.78
40372;BME280;28564;53.346;-6.554;2023-08-06T05:08:14;101150.84;;;13.99;52.90
40372;BME280;28564;53.346;-6.554;2023-08-06T05:10:43;101154.19;;;14.13;52.98
40372;BME280;28564;53.346;-6.554;2023-08-06T05:13:10;101158.20;;;14.29;53.05
40372;BME280;28564;53.346;-6.554;2023-08-06T05:15:38;101159.51;;;14.46;52.93
40372;BME280;28564;53.346;-6.554;2023-08-06T05:18:05;101158.93;;;14.12;52.74
40372;BME280;28564;53.346;-6.554;2023-08-06T05:20:36;101159.66;;;14.48;52.54
40372;BME280;28564;53.346;-6.554;2023-08-06T05:23:04;101162.46;;;14.61;52.21
40372;BME280;28564;53.346;-6.554;2023-08-06T05:25:31;101162.98;;;14.47;52.12
40372;BME280;28564;53.346;-6.554;2023-08-06T05:27:58;101161.63;;;14.57;52.07
40372;BME280;28564;53.346;-6.554;2023-08-06T05:30:25;101161.03;;;14.64;51.97
40372;BME280;28564;53.346;-6.554;2023-08-06T05:32:52;101161.77;;;14.74;52.01
40372;BME280;28564;53.346;-6.554;2023-08-06T05:35:20;101159.68;;;14.59;51.94
40372;BME280;28564;53.346;-6.554;2023-08-06T05:37:47;101163.23;;;14.96;51.92
40372;BME280;28564;53.346;-6.554;2023-08-06T05:40:14;101170.17;;;15.08;51.90
40372;BME280;28564;53.346;-6.554;2023-08-06T05:42:41;101172.60;;;14.85;51.63
40372;BME280;28564;53.346;-6.554;2023-08-06T05:45:09;101172.86;;;14.88;51.65
40372;BME280;28564;53.346;-6.554;2023-08-06T05:47:36;101176.32;;;15.13;51.62
40372;BME280;28564;53.346;-6.554;2023-08-06T05:50:04;101179.83;;;15.10;51.67
40372;BME280;28564;53.346;-6.554;2023-08-06T05:52:31;101181.20;;;14.83;51.92
40372;BME280;28564;53.346;-6.554;2023-08-06T05:54:59;101182.44;;;15.13;51.92
40372;BME280;28564;53.346;-6.554;2023-08-06T05:57:26;101181.80;;;15.15;51.90
40372;BME280;28564;53.346;-6.554;2023-08-06T05:59:54;101182.00;;;15.21;52.08
40372;BME280;28564;53.346;-6.554;2023-08-06T06:02:21;101181.56;;;15.34;52.13
40372;BME280;28564;53.346;-6.554;2023-08-06T06:04:49;101180.62;;;15.20;52.06
40372;BME280;28564;53.346;-6.554;2023-08-06T06:07:16;101182.09;;;15.63;52.03
40372;BME280;28564;53.346;-6.554;2023-08-06T06:09:43;101188.08;;;15.77;51.88
40372;BME280;28564;53.346;-6.554;2023-08-06T06:12:10;101191.11;;;15.62;51.93
40372;BME280;28564;53.346;-6.554;2023-08-06T06:14:37;101191.01;;;16.03;51.97
40372;BME280;28564;53.346;-6.554;2023-08-06T06:17:06;101189.93;;;15.91;51.95
40372;BME280;28564;53.346;-6.554;2023-08-06T06:19:33;101194.89;;;15.82;51.82
40372;BME280;28564;53.346;-6.554;2023-08-06T06:22:00;101194.86;;;15.93;51.78
40372;BME280;28564;53.346;-6.554;2023-08-06T06:24:28;101198.35;;;16.02;51.70
40372;BME280;28564;53.346;-6.554;2023-08-06T06:26:54;101199.60;;;16.07;51.56
40372;BME280;28564;53.346;-6.554;2023-08-06T06:29:22;101199.38;;;15.91;51.59
40372;BME280;28564;53.346;-6.554;2023-08-06T06:31:49;101199.62;;;15.98;51.64
40372;BME280;28564;53.346;-6.554;2023-08-06T06:34:17;101199.01;;;16.26;51.58
40372;BME280;28564;53.346;-6.554;2023-08-06T06:36:44;101201.38;;;16.08;51.44
40372;BME280;28564;53.346;-6.554;2023-08-06T06:39:11;101202.21;;;16.34;51.52
40372;BME280;28564;53.346;-6.554;2023-08-06T06:41:39;101205.57;;;16.18;51.43
40372;BME280;28564;53.346;-6.554;2023-08-06T06:44:06;101209.08;;;16.46;51.47
40372;BME280;28564;53.346;-6.554;2023-08-06T06:46:33;101207.22;;;16.54;51.59
40372;BME280;28564;53.346;-6.554;2023-08-06T06:49:00;101207.20;;;16.39;51.50
40372;BME280;28564;53.346;-6.554;2023-08-06T06:51:27;101206.07;;;16.63;51.33
40372;BME280;28564;53.346;-6.554;2023-08-06T06:53:54;101208.31;;;16.61;51.41
40372;BME280;28564;53.346;-6.554;2023-08-06T06:56:21;101211.21;;;16.58;51.63
40372;BME280;28564;53.346;-6.554;2023-08-06T06:58:49;101205.72;;;16.03;51.46
40372;BME280;28564;53.346;-6.554;2023-08-06T07:01:16;101208.34;;;16.28;51.53
40372;BME280;28564;53.346;-6.554;2023-08-06T07:03:43;101212.53;;;16.18;51.71
40372;BME280;28564;53.346;-6.554;2023-08-06T07:06:10;101212.47;;;16.31;51.88
40372;BME280;28564;53.346;-6.554;2023-08-06T07:08:37;101212.33;;;16.27;52.17
40372;BME280;28564;53.346;-6.554;2023-08-06T07:11:05;101213.78;;;16.50;52.40
40372;BME280;28564;53.346;-6.554;2023-08-06T07:13:34;101217.49;;;16.34;52.61
40372;BME280;28564;53.346;-6.554;2023-08-06T07:16:01;101212.49;;;16.44;52.79
40372;BME280;28564;53.346;-6.554;2023-08-06T07:18:29;101213.08;;;16.38;52.78
40372;BME280;28564;53.346;-6.554;2023-08-06T07:20:56;101216.71;;;16.54;52.85
40372;BME280;28564;53.346;-6.554;2023-08-06T07:23:25;101213.86;;;16.70;52.89
40372;BME280;28564;53.346;-6.554;2023-08-06T07:25:53;101212.11;;;17.07;52.97
40372;BME280;28564;53.346;-6.554;2023-08-06T07:28:20;101213.28;;;16.82;53.28
40372;BME280;28564;53.346;-6.554;2023-08-06T07:30:47;101214.85;;;17.02;52.89
40372;BME280;28564;53.346;-6.554;2023-08-06T07:33:14;101223.67;;;17.23;52.32
40372;BME280;28564;53.346;-6.554;2023-08-06T07:35:41;101209.82;;;17.30;52.36
40372;BME280;28564;53.346;-6.554;2023-08-06T07:38:08;101215.58;;;17.56;52.04
40372;BME280;28564;53.346;-6.554;2023-08-06T07:40:35;101206.22;;;17.94;51.35
40372;BME280;28564;53.346;-6.554;2023-08-06T07:43:02;101212.78;;;17.67;50.67
40372;BME280;28564;53.346;-6.554;2023-08-06T07:45:33;101201.33;;;17.70;50.57
40372;BME280;28564;53.346;-6.554;2023-08-06T07:48:00;101199.31;;;17.41;50.86
40372;BME280;28564;53.346;-6.554;2023-08-06T07:50:28;101202.07;;;17.66;51.03
40372;BME280;28564;53.346;-6.554;2023-08-06T07:52:55;101205.84;;;17.70;51.07
40372;BME280;28564;53.346;-6.554;2023-08-06T07:55:22;101206.48;;;17.68;50.98
40372;BME280;28564;53.346;-6.554;2023-08-06T07:57:49;101202.95;;;17.40;51.11
40372;BME280;28564;53.346;-6.554;2023-08-06T08:00:16;101205.29;;;17.81;51.39
40372;BME280;28564;53.346;-6.554;2023-08-06T08:02:43;101202.98;;;17.87;51.53
40372;BME280;28564;53.346;-6.554;2023-08-06T08:05:11;101203.16;;;17.37;51.76
40372;BME280;28564;53.346;-6.554;2023-08-06T08:07:37;101213.62;;;17.60;51.98
40372;BME280;28564;53.346;-6.554;2023-08-06T08:10:06;101210.28;;;17.38;52.05
40372;BME280;28564;53.346;-6.554;2023-08-06T08:12:33;101210.13;;;17.72;51.70
40372;BME280;28564;53.346;-6.554;2023-08-06T08:15:00;101210.76;;;17.63;51.74
40372;BME280;28564;53.346;-6.554;2023-08-06T08:17:28;101215.55;;;18.10;51.90
40372;BME280;28564;53.346;-6.554;2023-08-06T08:19:55;101210.72;;;17.91;51.24
40372;BME280;28564;53.346;-6.554;2023-08-06T08:22:22;101204.81;;;18.40;51.12
40372;BME280;28564;53.346;-6.554;2023-08-06T08:24:49;101209.15;;;18.42;50.18
40372;BME280;28564;53.346;-6.554;2023-08-06T08:27:16;101208.84;;;18.28;50.47
40372;BME280;28564;53.346;-6.554;2023-08-06T08:29:43;101208.65;;;18.36;50.71
40372;BME280;28564;53.346;-6.554;2023-08-06T08:32:10;101213.21;;;18.29;49.66
40372;BME280;28564;53.346;-6.554;2023-08-06T08:34:37;101214.40;;;18.40;49.74
40372;BME280;28564;53.346;-6.554;2023-08-06T08:37:04;101211.18;;;18.56;49.30
40372;BME280;28564;53.346;-6.554;2023-08-06T08:39:31;101212.50;;;18.86;48.89
40372;BME280;28564;53.346;-6.554;2023-08-06T08:41:58;101213.97;;;18.70;49.31
40372;BME280;28564;53.346;-6.554;2023-08-06T08:44:26;101215.66;;;18.57;48.74
40372;BME280;28564;53.346;-6.554;2023-08-06T08:46:53;101212.46;;;18.61;48.53
40372;BME280;28564;53.346;-6.554;2023-08-06T08:49:21;101209.82;;;18.50;48.60
40372;BME280;28564;53.346;-6.554;2023-08-06T08:51:51;101210.53;;;18.62;49.01
40372;BME280;28564;53.346;-6.554;2023-08-06T08:54:20;101211.25;;;18.91;48.63
40372;BME280;28564;53.346;-6.554;2023-08-06T08:56:50;101207.84;;;19.11;48.34
40372;BME280;28564;53.346;-6.554;2023-08-06T08:59:17;101210.93;;;19.12;48.34
40372;BME280;28564;53.346;-6.554;2023-08-06T09:01:46;101213.70;;;19.16;47.21
40372;BME280;28564;53.346;-6.554;2023-08-06T09:04:15;101205.97;;;19.47;47.29
40372;BME280;28564;53.346;-6.554;2023-08-06T09:06:47;101208.54;;;19.32;47.16
40372;BME280;28564;53.346;-6.554;2023-08-06T09:09:22;101204.24;;;19.62;46.97
40372;BME280;28564;53.346;-6.554;2023-08-06T09:11:52;101211.62;;;19.59;46.57
40372;BME280;28564;53.346;-6.554;2023-08-06T09:14:20;101210.16;;;19.62;46.42
40372;BME280;28564;53.346;-6.554;2023-08-06T09:16:47;101211.48;;;19.67;46.20
40372;BME280;28564;53.346;-6.554;2023-08-06T09:19:15;101213.54;;;19.45;45.75
40372;BME280;28564;53.346;-6.554;2023-08-06T09:21:43;101217.30;;;19.25;45.95
40372;BME280;28564;53.346;-6.554;2023-08-06T09:24:11;101221.11;;;19.43;46.02
40372;BME280;28564;53.346;-6.554;2023-08-06T09:26:40;101214.30;;;19.49;46.12
40372;BME280;28564;53.346;-6.554;2023-08-06T09:29:09;101208.41;;;19.78;45.92
40372;BME280;28564;53.346;-6.554;2023-08-06T09:31:41;101208.66;;;19.38;46.07
40372;BME280;28564;53.346;-6.554;2023-08-06T09:34:11;101218.26;;;19.80;46.07
40372;BME280;28564;53.346;-6.554;2023-08-06T09:36:40;101225.55;;;19.61;45.82
40372;BME280;28564;53.346;-6.554;2023-08-06T09:39:13;101226.54;;;19.38;46.29
40372;BME280;28564;53.346;-6.554;2023-08-06T09:41:40;101229.39;;;19.05;47.17
40372;BME280;28564;53.346;-6.554;2023-08-06T09:44:15;101223.09;;;19.29;46.35
40372;BME280;28564;53.346;-6.554;2023-08-06T09:46:43;101214.77;;;19.43;46.43
40372;BME280;28564;53.346;-6.554;2023-08-06T09:49:15;101211.73;;;19.69;46.49
40372;BME280;28564;53.346;-6.554;2023-08-06T09:51:42;101210.78;;;19.96;45.90
40372;BME280;28564;53.346;-6.554;2023-08-06T09:54:11;101211.57;;;20.02;45.16
40372;BME280;28564;53.346;-6.554;2023-08-06T09:56:38;101212.83;;;20.36;44.79
40372;BME280;28564;53.346;-6.554;2023-08-06T09:59:06;101210.09;;;20.41;43.84
40372;BME280;28564;53.346;-6.554;2023-08-06T10:01:35;101215.40;;;20.44;43.60
40372;BME280;28564;53.346;-6.554;2023-08-06T10:04:03;101217.64;;;20.48;43.39
40372;BME280;28564;53.346;-6.554;2023-08-06T10:06:34;101217.01;;;20.80;43.18
40372;BME280;28564;53.346;-6.554;2023-08-06T10:09:03;101219.91;;;21.13;43.30
40372;BME280;28564;53.346;-6.554;2023-08-06T10:11:30;101216.89;;;21.14;43.07
40372;BME280;28564;53.346;-6.554;2023-08-06T10:14:03;101225.38;;;21.60;41.68
40372;BME280;28564;53.346;-6.554;2023-08-06T10:16:31;101218.04;;;21.37;41.08
40372;BME280;28564;53.346;-6.554;2023-08-06T10:18:59;101218.95;;;21.60;41.61
40372;BME280;28564;53.346;-6.554;2023-08-06T10:21:28;101217.86;;;21.61;41.33
40372;BME280;28564;53.346;-6.554;2023-08-06T10:23:55;101225.17;;;21.37;40.57
40372;BME280;28564;53.346;-6.554;2023-08-06T10:26:25;101235.02;;;20.93;42.52
40372;BME280;28564;53.346;-6.554;2023-08-06T10:28:53;101224.41;;;20.64;43.41
40372;BME280;28564;53.346;-6.554;2023-08-06T10:31:20;101224.12;;;20.63;44.33
40372;BME280;28564;53.346;-6.554;2023-08-06T10:33:48;101223.48;;;20.24;44.80
40372;BME280;28564;53.346;-6.554;2023-08-06T10:36:16;101220.89;;;20.51;45.31
40372;BME280;28564;53.346;-6.554;2023-08-06T10:38:45;101218.43;;;20.79;45.37
40372;BME280;28564;53.346;-6.554;2023-08-06T10:41:17;101212.01;;;21.01;44.74
40372;BME280;28564;53.346;-6.554;2023-08-06T10:43:47;101215.59;;;20.91;44.49
40372;BME280;28564;53.346;-6.554;2023-08-06T10:46:23;101226.47;;;21.49;43.55
40372;BME280;28564;53.346;-6.554;2023-08-06T10:48:51;101232.49;;;21.16;42.90
40372;BME280;28564;53.346;-6.554;2023-08-06T10:51:18;101246.79;;;20.86;44.36
40372;BME280;28564;53.346;-6.554;2023-08-06T10:53:46;101251.23;;;20.48;44.87
40372;BME280;28564;53.346;-6.554;2023-08-06T10:56:15;101238.90;;;19.98;45.44
40372;BME280;28564;53.346;-6.554;2023-08-06T10:58:43;101237.91;;;19.97;46.46
40372;BME280;28564;53.346;-6.554;2023-08-06T11:01:11;101235.10;;;19.93;47.38
40372;BME280;28564;53.346;-6.554;2023-08-06T11:03:39;101231.76;;;19.68;47.76
40372;BME280;28564;53.346;-6.554;2023-08-06T11:06:07;101231.64;;;20.12;48.06
40372;BME280;28564;53.346;-6.554;2023-08-06T11:08:36;101230.92;;;20.10;48.43
40372;BME280;28564;53.346;-6.554;2023-08-06T11:11:12;101226.56;;;20.63;48.16
40372;BME280;28564;53.346;-6.554;2023-08-06T11:13:40;101222.93;;;20.44;48.27
40372;BME280;28564;53.346;-6.554;2023-08-06T11:16:08;101222.90;;;20.78;47.98
40372;BME280;28564;53.346;-6.554;2023-08-06T11:18:36;101223.78;;;21.11;47.55
40372;BME280;28564;53.346;-6.554;2023-08-06T11:21:03;101224.01;;;21.38;46.54
40372;BME280;28564;53.346;-6.554;2023-08-06T11:23:31;101222.39;;;21.44;45.83
40372;BME280;28564;53.346;-6.554;2023-08-06T11:25:58;101223.64;;;21.35;45.33
40372;BME280;28564;53.346;-6.554;2023-08-06T11:28:27;101228.63;;;21.67;44.58
40372;BME280;28564;53.346;-6.554;2023-08-06T11:30:54;101240.92;;;22.07;42.92
40372;BME280;28564;53.346;-6.554;2023-08-06T11:33:22;101226.14;;;22.14;40.72
40372;BME280;28564;53.346;-6.554;2023-08-06T11:35:49;101224.38;;;21.90;40.88
40372;BME280;28564;53.346;-6.554;2023-08-06T11:38:17;101223.26;;;22.16;41.62
40372;BME280;28564;53.346;-6.554;2023-08-06T11:40:45;101221.27;;;22.08;40.99
40372;BME280;28564;53.346;-6.554;2023-08-06T11:43:12;101224.74;;;21.96;41.36
40372;BME280;28564;53.346;-6.554;2023-08-06T11:45:40;101216.64;;;21.96;41.66
40372;BME280;28564;53.346;-6.554;2023-08-06T11:48:08;101216.49;;;22.07;42.00
40372;BME280;28564;53.346;-6.554;2023-08-06T11:50:37;101211.54;;;21.97;41.88
40372;BME280;28564;53.346;-6.554;2023-08-06T11:53:04;101213.09;;;22.16;41.83
40372;BME280;28564;53.346;-6.554;2023-08-06T11:55:32;101215.57;;;22.46;41.97
40372;BME280;28564;53.346;-6.554;2023-08-06T11:58:03;101216.31;;;22.28;41.40
40372;BME280;28564;53.346;-6.554;2023-08-06T12:00:31;101208.18;;;22.00;41.75
40372;BME280;28564;53.346;-6.554;2023-08-06T12:02:59;101208.77;;;21.92;41.72
40372;BME280;28564;53.346;-6.554;2023-08-06T12:05:34;101209.27;;;22.04;40.54
40372;BME280;28564;53.346;-6.554;2023-08-06T12:08:02;101212.56;;;22.30;40.55
40372;BME280;28564;53.346;-6.554;2023-08-06T12:10:31;101216.56;;;22.40;38.65
40372;BME280;28564;53.346;-6.554;2023-08-06T12:13:00;101210.04;;;22.47;37.04
40372;BME280;28564;53.346;-6.554;2023-08-06T12:15:28;101212.70;;;22.77;37.56
40372;BME280;28564;53.346;-6.554;2023-08-06T12:17:55;101211.30;;;23.06;37.79
40372;BME280;28564;53.346;-6.554;2023-08-06T12:20:22;101214.22;;;23.26;37.13
40372;BME280;28564;53.346;-6.554;2023-08-06T12:22:50;101207.00;;;23.68;36.68
40372;BME280;28564;53.346;-6.554;2023-08-06T12:25:16;101226.58;;;23.86;36.51
40372;BME280;28564;53.346;-6.554;2023-08-06T12:27:45;101220.90;;;23.41;36.64
40372;BME280;28564;53.346;-6.554;2023-08-06T12:30:13;101220.17;;;23.61;36.79
40372;BME280;28564;53.346;-6.554;2023-08-06T12:32:40;101217.40;;;23.50;36.58
40372;BME280;28564;53.346;-6.554;2023-08-06T12:35:08;101223.10;;;23.68;36.45
40372;BME280;28564;53.346;-6.554;2023-08-06T12:37:35;101221.92;;;23.45;35.58
40372;BME280;28564;53.346;-6.554;2023-08-06T12:40:04;101215.85;;;23.30;35.09
40372;BME280;28564;53.346;-6.554;2023-08-06T12:42:32;101208.06;;;23.35;35.28
40372;BME280;28564;53.346;-6.554;2023-08-06T12:44:59;101215.71;;;23.49;36.10